Nautilus — ISPC — position and weather

sailwx.info

Track history (hours):
 
Tides and Currents Weather Stations Pressure Air Temp Water Temp Dewpoint Dewpoint Depression Visibility Wind Speed Wind Dir Waves Ship Positions

Nautilus

Last reported at 2014-Sep-30 17:33 UTC. Time now 2014-Sep-30 17:57 UTC.
Position N 42°49' E 010°12'.

Length 25 m.

Type: Passenger vessel. MMSI: 247205700.

Date/timePositionNaut miles runAvg speedWind from/ knotsBaromVisibWave heightAir tempDewpointWater temp
2014-Sep-30 17:33N 42°49' E 010°12'0 0.0
2014-Sep-30 16:33N 42°49' E 010°12'4 3.5
2014-Sep-30 15:30N 42°48' E 010°07'4 1.9
2014-Sep-30 13:32N 42°48' E 010°12'0 0.0
2014-Sep-30 12:32N 42°48' E 010°12'0 0.2
2014-Sep-30 11:34N 42°49' E 010°12'0 0.0
2014-Sep-30 10:33N 42°49' E 010°12'0 0.0
2014-Sep-30 09:33N 42°49' E 010°12'0 0.0
2014-Sep-30 08:34N 42°49' E 010°12'0 0.0
2014-Sep-30 07:33N 42°49' E 010°12'0 0.0
2014-Sep-30 06:33N 42°49' E 010°12'0 0.0
2014-Sep-30 05:33N 42°49' E 010°12'0 0.0
2014-Sep-30 04:33N 42°49' E 010°12'0 0.0
2014-Sep-30 03:34N 42°49' E 010°12'0 0.0
2014-Sep-30 02:33N 42°49' E 010°12'0 0.0
2014-Sep-30 01:34N 42°49' E 010°12'0 0.0
2014-Sep-30 00:34N 42°49' E 010°12'0 0.0
2014-Sep-29 23:33N 42°49' E 010°12'0 0.0
2014-Sep-29 22:33N 42°49' E 010°12'0 0.0
2014-Sep-29 21:33N 42°49' E 010°12'0 0.0
2014-Sep-29 20:32N 42°49' E 010°12'0 0.0
2014-Sep-29 19:34N 42°49' E 010°12'0 0.0
2014-Sep-29 18:33N 42°49' E 010°12'0 0.0
2014-Sep-29 17:33N 42°49' E 010°12'0 0.0
2014-Sep-29 16:34N 42°49' E 010°12'0 0.1
2014-Sep-29 13:33N 42°48' E 010°12'0 0.0
2014-Sep-29 12:33N 42°48' E 010°12'2 1.7
2014-Sep-29 11:33N 42°49' E 010°14'1 0.2
2014-Sep-29 07:16N 42°49' E 010°13'1 1.4
2014-Sep-29 06:33N 42°49' E 010°12'0 0.0
2014-Sep-29 05:34N 42°49' E 010°12'0 0.0
2014-Sep-29 04:33N 42°49' E 010°12'0 0.0
2014-Sep-29 03:33N 42°49' E 010°12'0 0.0
2014-Sep-29 02:32N 42°49' E 010°12'0 0.0
2014-Sep-29 01:33N 42°49' E 010°12'0 0.0
2014-Sep-29 00:30N 42°49' E 010°12'0 0.0
2014-Sep-28 23:25N 42°49' E 010°12'0 0.0
2014-Sep-28 22:33N 42°49' E 010°12'0 0.0
2014-Sep-28 20:03N 42°49' E 010°12'0 0.0
2014-Sep-28 19:33N 42°49' E 010°12'0 0.0
2014-Sep-28 18:23N 42°49' E 010°12'0 0.0
2014-Sep-28 17:23N 42°49' E 010°12'0 0.0
2014-Sep-28 16:32N 42°49' E 010°12'5 2.2
2014-Sep-28 14:24N 42°46' E 010°06'5 2.3
2014-Sep-28 12:25N 42°48' E 010°12'0 0.2
2014-Sep-28 11:34N 42°49' E 010°12'0 0.0
2014-Sep-28 10:33N 42°49' E 010°12'0 0.0
2014-Sep-28 09:31N 42°49' E 010°12'0 0.0
2014-Sep-28 08:27N 42°49' E 010°12'0 0.0
2014-Sep-28 07:33N 42°49' E 010°12'0 0.0
2014-Sep-28 06:34N 42°49' E 010°12'0 0.0
2014-Sep-28 05:33N 42°49' E 010°12'0 0.0
2014-Sep-28 04:33N 42°49' E 010°12'0 0.0
2014-Sep-28 03:33N 42°49' E 010°12'0 0.0
2014-Sep-28 02:33N 42°49' E 010°12'0 0.0
2014-Sep-28 01:32N 42°49' E 010°12'0 0.0
2014-Sep-28 00:34N 42°49' E 010°12'0 0.0
2014-Sep-27 23:33N 42°49' E 010°12'0 0.0
2014-Sep-27 22:33N 42°49' E 010°12'0 0.0
2014-Sep-27 21:34N 42°49' E 010°12'0 0.0
2014-Sep-27 20:34N 42°49' E 010°12'0 0.0
2014-Sep-27 19:34N 42°49' E 010°12'0 0.0
2014-Sep-27 18:34N 42°49' E 010°12'0 0.0
2014-Sep-27 17:33N 42°49' E 010°12'0 0.0
2014-Sep-27 16:34N 42°49' E 010°12'4 3.8
2014-Sep-27 15:23N 42°48' E 010°06'2 1.8
2014-Sep-27 14:32N 42°46' E 010°06'5 4.9
2014-Sep-27 13:33N 42°48' E 010°12'0 0.0
2014-Sep-27 12:33N 42°48' E 010°12'0 0.2
2014-Sep-27 11:25N 42°49' E 010°12'0 0.0
2014-Sep-27 10:33N 42°49' E 010°12'0 0.0
2014-Sep-27 09:33N 42°49' E 010°12'0 0.0
2014-Sep-27 08:33N 42°49' E 010°12'0 0.0
2014-Sep-27 07:33N 42°49' E 010°12'0 0.0
2014-Sep-27 06:20N 42°49' E 010°12'0 0.0
2014-Sep-27 05:05N 42°49' E 010°12'0 0.0
2014-Sep-27 04:33N 42°49' E 010°12'0 0.0
2014-Sep-27 03:33N 42°49' E 010°12'0 0.0
2014-Sep-27 02:34N 42°49' E 010°12'0 0.0
2014-Sep-27 01:33N 42°49' E 010°12'0 0.0
2014-Sep-27 00:33N 42°49' E 010°12'0 0.0
2014-Sep-26 23:33N 42°49' E 010°12'0 0.0
2014-Sep-26 22:33N 42°49' E 010°12'0 0.0
2014-Sep-26 21:34N 42°49' E 010°12'0 0.0
2014-Sep-26 20:33N 42°49' E 010°12'0 0.0
2014-Sep-26 19:28N 42°49' E 010°12'0 0.0
2014-Sep-26 18:32N 42°49' E 010°12'0 0.0
2014-Sep-26 17:33N 42°49' E 010°12'0 0.0
2014-Sep-26 16:33N 42°49' E 010°12'3 2.5
2014-Sep-26 15:32N 42°49' E 010°08'4 3.8
2014-Sep-26 14:33N 42°45' E 010°06'5 5.0
2014-Sep-26 13:33N 42°48' E 010°12'0 0.0
2014-Sep-26 12:33N 42°48' E 010°12'0 0.1
2014-Sep-26 07:08N 42°49' E 010°12'0 0.7
2014-Sep-26 06:33N 42°49' E 010°12'0 0.0
2014-Sep-26 05:31N 42°49' E 010°12'0 0.0
2014-Sep-26 04:33N 42°49' E 010°12'0 0.0
2014-Sep-26 03:33N 42°49' E 010°12'0 0.0
2014-Sep-26 02:34N 42°49' E 010°12'0 0.0
2014-Sep-26 01:33N 42°49' E 010°12'0 0.0
2014-Sep-26 00:33N 42°49' E 010°12'0 0.0
2014-Sep-25 23:33N 42°49' E 010°12'0 0.0
2014-Sep-25 22:33N 42°49' E 010°12'0 0.0
2014-Sep-25 21:33N 42°49' E 010°12'0 0.0
2014-Sep-25 20:27N 42°49' E 010°12'0 0.0
2014-Sep-25 19:31N 42°49' E 010°12'0 0.0
2014-Sep-25 18:33N 42°49' E 010°12'0 0.0
2014-Sep-25 17:32N 42°49' E 010°12'0 0.0
2014-Sep-25 16:33N 42°49' E 010°12'0 0.0
2014-Sep-25 15:32N 42°49' E 010°12'0 0.0
2014-Sep-25 14:34N 42°49' E 010°12'0 0.2
2014-Sep-25 13:33N 42°48' E 010°12'0 0.0
2014-Sep-25 12:32N 42°48' E 010°12'0 0.0
2014-Sep-25 11:33N 42°48' E 010°12'0 0.0
2014-Sep-25 06:34N 42°49' E 010°12'0 0.0
2014-Sep-25 05:33N 42°49' E 010°12'0 0.0
2014-Sep-25 04:34N 42°49' E 010°12'0 0.0
2014-Sep-25 03:33N 42°49' E 010°12'0 0.0
2014-Sep-25 02:34N 42°49' E 010°12'0 0.0
2014-Sep-25 01:34N 42°49' E 010°12'0 0.0
2014-Sep-25 00:33N 42°49' E 010°12'0 0.0
2014-Sep-24 23:34N 42°49' E 010°12'0 0.0
2014-Sep-24 22:33N 42°49' E 010°12'0 0.0
2014-Sep-24 21:34N 42°49' E 010°12'0 0.0
2014-Sep-24 20:33N 42°49' E 010°12'0 0.0
2014-Sep-24 19:33N 42°49' E 010°12'0 0.0
2014-Sep-24 18:34N 42°49' E 010°12'0 0.0
2014-Sep-24 17:34N 42°49' E 010°12'0 0.0
2014-Sep-24 16:33N 42°49' E 010°12'0 0.1
2014-Sep-24 13:33N 42°48' E 010°12'0 0.0
2014-Sep-24 12:33N 42°48' E 010°12'0 0.2
2014-Sep-24 11:33N 42°49' E 010°12'0 0.0
2014-Sep-24 10:33N 42°49' E 010°12'0 0.0
2014-Sep-24 09:33N 42°49' E 010°12'0 0.0
2014-Sep-24 08:31N 42°49' E 010°12'0 0.0
2014-Sep-24 00:33N 42°49' E 010°12'0 0.0
2014-Sep-23 23:29N 42°49' E 010°12'0 0.0
2014-Sep-23 22:33N 42°49' E 010°12'0 0.0
2014-Sep-23 21:30N 42°49' E 010°12'0 0.0
2014-Sep-23 20:09N 42°49' E 010°12'0 0.0
2014-Sep-23 19:33N 42°49' E 010°12'0 0.0
2014-Sep-23 18:33N 42°49' E 010°12'0 0.0
2014-Sep-23 17:32N 42°49' E 010°12'0 0.0
2014-Sep-23 16:34N 42°49' E 010°12'0 0.0
2014-Sep-23 15:34N 42°49' E 010°12'0 0.0
2014-Sep-23 14:33N 42°49' E 010°12'0 0.0
2014-Sep-23 13:33N 42°49' E 010°12'0 0.0
2014-Sep-23 12:34N 42°49' E 010°12'0 0.0
2014-Sep-23 11:34N 42°49' E 010°12'0 0.0
2014-Sep-23 10:34N 42°49' E 010°12'0 0.0
2014-Sep-23 09:34N 42°49' E 010°12'0 0.0
2014-Sep-23 08:33N 42°49' E 010°12'0 0.0
2014-Sep-23 07:34N 42°49' E 010°12'0 0.0
2014-Sep-23 06:33N 42°49' E 010°12'0 0.0
2014-Sep-23 05:33N 42°49' E 010°12'0 0.0
2014-Sep-23 04:33N 42°49' E 010°12'0 0.0
2014-Sep-23 03:34N 42°49' E 010°12'0 0.0
2014-Sep-23 02:33N 42°49' E 010°12'0 0.0
2014-Sep-23 01:33N 42°49' E 010°12'0 0.0
2014-Sep-23 00:33N 42°49' E 010°12'0 0.0
2014-Sep-22 23:33N 42°49' E 010°12'0 0.0
2014-Sep-22 22:34N 42°49' E 010°12'0 0.0
2014-Sep-22 21:33N 42°49' E 010°12'0 0.0
2014-Sep-22 20:32N 42°49' E 010°12'0 0.0
2014-Sep-22 19:34N 42°49' E 010°12'0 0.0
2014-Sep-22 18:33N 42°49' E 010°12'0 0.0
2014-Sep-22 17:33N 42°49' E 010°12'0 0.0
2014-Sep-22 16:32N 42°49' E 010°12'0 0.0
2014-Sep-22 15:33N 42°49' E 010°12'0 0.0
2014-Sep-22 14:33N 42°49' E 010°12'0 0.0
2014-Sep-22 13:34N 42°49' E 010°12'0 0.0
2014-Sep-22 12:33N 42°49' E 010°12'0 0.0
2014-Sep-22 11:33N 42°49' E 010°12'0 0.0
2014-Sep-22 10:32N 42°49' E 010°12'0 0.0
2014-Sep-22 09:33N 42°49' E 010°12'0 0.0
2014-Sep-22 08:34N 42°49' E 010°12'0 0.0
2014-Sep-22 07:33N 42°49' E 010°12'0 0.0
2014-Sep-22 06:31N 42°49' E 010°12'0 0.0
2014-Sep-22 05:29N 42°49' E 010°12'0 0.0
2014-Sep-22 04:34N 42°49' E 010°12'0 0.0
2014-Sep-22 03:33N 42°49' E 010°12'0 0.0
2014-Sep-22 02:31N 42°49' E 010°12'0 0.0
2014-Sep-22 01:30N 42°49' E 010°12'0 0.0
2014-Sep-22 00:33N 42°49' E 010°12'0 0.0
2014-Sep-21 23:33N 42°49' E 010°12'0 0.0
2014-Sep-21 22:33N 42°49' E 010°12'0 0.0
2014-Sep-21 21:33N 42°49' E 010°12'0 0.0
2014-Sep-21 20:33N 42°49' E 010°12'0 0.0
2014-Sep-21 19:33N 42°49' E 010°12'0 0.0
2014-Sep-21 18:34N 42°49' E 010°12'0 0.0
2014-Sep-21 17:34N 42°49' E 010°12'0 0.0
2014-Sep-21 16:34N 42°49' E 010°12'4 3.3
2014-Sep-21 15:26N 42°48' E 010°07'4 2.1
2014-Sep-21 13:34N 42°48' E 010°12'0 0.1
2014-Sep-21 12:33N 42°48' E 010°12'0 0.2
2014-Sep-21 11:33N 42°49' E 010°12'0 0.0
2014-Sep-21 10:33N 42°49' E 010°12'0 0.0
2014-Sep-21 09:33N 42°49' E 010°12'0 0.0
2014-Sep-21 08:34N 42°49' E 010°12'0 0.0
2014-Sep-21 07:34N 42°49' E 010°12'0 0.0
2014-Sep-21 06:34N 42°49' E 010°12'0 0.0
2014-Sep-21 05:34N 42°49' E 010°12'0 0.0
2014-Sep-21 04:33N 42°49' E 010°12'0 0.0
2014-Sep-21 03:34N 42°49' E 010°12'0 0.0
2014-Sep-21 02:34N 42°49' E 010°12'0 0.0
2014-Sep-21 01:33N 42°49' E 010°12'0 0.0
2014-Sep-21 00:34N 42°49' E 010°12'0 0.0
2014-Sep-20 23:33N 42°49' E 010°12'0 0.0
2014-Sep-20 22:34N 42°49' E 010°12'0 0.0
2014-Sep-20 21:34N 42°49' E 010°12'0 0.0
2014-Sep-20 20:33N 42°49' E 010°12'0 0.0
2014-Sep-20 19:33N 42°49' E 010°12'0 0.0
2014-Sep-20 18:21N 42°49' E 010°12'  
Track history (hours):
 
Tides and Currents Weather Stations Pressure Air Temp Water Temp Dewpoint Dewpoint Depression Visibility Wind Speed Wind Dir Waves Ship Positions

Nautilus

Last reported at 2014-Sep-30 17:33 UTC. Time now 2014-Sep-30 17:57 UTC.
Position N 42°49' E 010°12'.

Length 25 m.

Type: Passenger vessel. MMSI: 247205700.

Date/timePositionNaut miles runAvg speedWind from/ knotsBaromVisibWave heightAir tempDewpointWater temp
2014-Sep-30 17:33N 42°49' E 010°12'0 0.0
2014-Sep-30 16:33N 42°49' E 010°12'4 3.5
2014-Sep-30 15:30N 42°48' E 010°07'4 1.9
2014-Sep-30 13:32N 42°48' E 010°12'0 0.0
2014-Sep-30 12:32N 42°48' E 010°12'0 0.2
2014-Sep-30 11:34N 42°49' E 010°12'0 0.0
2014-Sep-30 10:33N 42°49' E 010°12'0 0.0
2014-Sep-30 09:33N 42°49' E 010°12'0 0.0
2014-Sep-30 08:34N 42°49' E 010°12'0 0.0
2014-Sep-30 07:33N 42°49' E 010°12'0 0.0
2014-Sep-30 06:33N 42°49' E 010°12'0 0.0
2014-Sep-30 05:33N 42°49' E 010°12'0 0.0
2014-Sep-30 04:33N 42°49' E 010°12'0 0.0
2014-Sep-30 03:34N 42°49' E 010°12'0 0.0
2014-Sep-30 02:33N 42°49' E 010°12'0 0.0
2014-Sep-30 01:34N 42°49' E 010°12'0 0.0
2014-Sep-30 00:34N 42°49' E 010°12'0 0.0
2014-Sep-29 23:33N 42°49' E 010°12'0 0.0
2014-Sep-29 22:33N 42°49' E 010°12'0 0.0
2014-Sep-29 21:33N 42°49' E 010°12'0 0.0
2014-Sep-29 20:32N 42°49' E 010°12'0 0.0
2014-Sep-29 19:34N 42°49' E 010°12'0 0.0
2014-Sep-29 18:33N 42°49' E 010°12'0 0.0
2014-Sep-29 17:33N 42°49' E 010°12'0 0.0
2014-Sep-29 16:34N 42°49' E 010°12'0 0.1
2014-Sep-29 13:33N 42°48' E 010°12'0 0.0
2014-Sep-29 12:33N 42°48' E 010°12'2 1.7
2014-Sep-29 11:33N 42°49' E 010°14'1 0.2
2014-Sep-29 07:16N 42°49' E 010°13'1 1.4
2014-Sep-29 06:33N 42°49' E 010°12'0 0.0
2014-Sep-29 05:34N 42°49' E 010°12'0 0.0
2014-Sep-29 04:33N 42°49' E 010°12'0 0.0
2014-Sep-29 03:33N 42°49' E 010°12'0 0.0
2014-Sep-29 02:32N 42°49' E 010°12'0 0.0
2014-Sep-29 01:33N 42°49' E 010°12'0 0.0
2014-Sep-29 00:30N 42°49' E 010°12'0 0.0
2014-Sep-28 23:25N 42°49' E 010°12'0 0.0
2014-Sep-28 22:33N 42°49' E 010°12'0 0.0
2014-Sep-28 20:03N 42°49' E 010°12'0 0.0
2014-Sep-28 19:33N 42°49' E 010°12'0 0.0
2014-Sep-28 18:23N 42°49' E 010°12'0 0.0
2014-Sep-28 17:23N 42°49' E 010°12'0 0.0
2014-Sep-28 16:32N 42°49' E 010°12'5 2.2
2014-Sep-28 14:24N 42°46' E 010°06'5 2.3
2014-Sep-28 12:25N 42°48' E 010°12'0 0.2
2014-Sep-28 11:34N 42°49' E 010°12'0 0.0
2014-Sep-28 10:33N 42°49' E 010°12'0 0.0
2014-Sep-28 09:31N 42°49' E 010°12'0 0.0
2014-Sep-28 08:27N 42°49' E 010°12'0 0.0
2014-Sep-28 07:33N 42°49' E 010°12'0 0.0
2014-Sep-28 06:34N 42°49' E 010°12'0 0.0
2014-Sep-28 05:33N 42°49' E 010°12'0 0.0
2014-Sep-28 04:33N 42°49' E 010°12'0 0.0
2014-Sep-28 03:33N 42°49' E 010°12'0 0.0
2014-Sep-28 02:33N 42°49' E 010°12'0 0.0
2014-Sep-28 01:32N 42°49' E 010°12'0 0.0
2014-Sep-28 00:34N 42°49' E 010°12'0 0.0
2014-Sep-27 23:33N 42°49' E 010°12'0 0.0
2014-Sep-27 22:33N 42°49' E 010°12'0 0.0
2014-Sep-27 21:34N 42°49' E 010°12'0 0.0
2014-Sep-27 20:34N 42°49' E 010°12'0 0.0
2014-Sep-27 19:34N 42°49' E 010°12'0 0.0
2014-Sep-27 18:34N 42°49' E 010°12'0 0.0
2014-Sep-27 17:33N 42°49' E 010°12'0 0.0
2014-Sep-27 16:34N 42°49' E 010°12'4 3.8
2014-Sep-27 15:23N 42°48' E 010°06'2 1.8
2014-Sep-27 14:32N 42°46' E 010°06'5 4.9
2014-Sep-27 13:33N 42°48' E 010°12'0 0.0
2014-Sep-27 12:33N 42°48' E 010°12'0 0.2
2014-Sep-27 11:25N 42°49' E 010°12'0 0.0
2014-Sep-27 10:33N 42°49' E 010°12'0 0.0
2014-Sep-27 09:33N 42°49' E 010°12'0 0.0
2014-Sep-27 08:33N 42°49' E 010°12'0 0.0
2014-Sep-27 07:33N 42°49' E 010°12'0 0.0
2014-Sep-27 06:20N 42°49' E 010°12'0 0.0
2014-Sep-27 05:05N 42°49' E 010°12'0 0.0
2014-Sep-27 04:33N 42°49' E 010°12'0 0.0
2014-Sep-27 03:33N 42°49' E 010°12'0 0.0
2014-Sep-27 02:34N 42°49' E 010°12'0 0.0
2014-Sep-27 01:33N 42°49' E 010°12'0 0.0
2014-Sep-27 00:33N 42°49' E 010°12'0 0.0
2014-Sep-26 23:33N 42°49' E 010°12'0 0.0
2014-Sep-26 22:33N 42°49' E 010°12'0 0.0
2014-Sep-26 21:34N 42°49' E 010°12'0 0.0
2014-Sep-26 20:33N 42°49' E 010°12'0 0.0
2014-Sep-26 19:28N 42°49' E 010°12'0 0.0
2014-Sep-26 18:32N 42°49' E 010°12'0 0.0
2014-Sep-26 17:33N 42°49' E 010°12'0 0.0
2014-Sep-26 16:33N 42°49' E 010°12'3 2.5
2014-Sep-26 15:32N 42°49' E 010°08'4 3.8
2014-Sep-26 14:33N 42°45' E 010°06'5 5.0
2014-Sep-26 13:33N 42°48' E 010°12'0 0.0
2014-Sep-26 12:33N 42°48' E 010°12'0 0.1
2014-Sep-26 07:08N 42°49' E 010°12'0 0.7
2014-Sep-26 06:33N 42°49' E 010°12'0 0.0
2014-Sep-26 05:31N 42°49' E 010°12'0 0.0
2014-Sep-26 04:33N 42°49' E 010°12'0 0.0
2014-Sep-26 03:33N 42°49' E 010°12'0 0.0
2014-Sep-26 02:34N 42°49' E 010°12'0 0.0
2014-Sep-26 01:33N 42°49' E 010°12'0 0.0
2014-Sep-26 00:33N 42°49' E 010°12'0 0.0
2014-Sep-25 23:33N 42°49' E 010°12'0 0.0
2014-Sep-25 22:33N 42°49' E 010°12'0 0.0
2014-Sep-25 21:33N 42°49' E 010°12'0 0.0
2014-Sep-25 20:27N 42°49' E 010°12'0 0.0
2014-Sep-25 19:31N 42°49' E 010°12'0 0.0
2014-Sep-25 18:33N 42°49' E 010°12'0 0.0
2014-Sep-25 17:32N 42°49' E 010°12'0 0.0
2014-Sep-25 16:33N 42°49' E 010°12'0 0.0
2014-Sep-25 15:32N 42°49' E 010°12'0 0.0
2014-Sep-25 14:34N 42°49' E 010°12'0 0.2
2014-Sep-25 13:33N 42°48' E 010°12'0 0.0
2014-Sep-25 12:32N 42°48' E 010°12'0 0.0
2014-Sep-25 11:33N 42°48' E 010°12'0 0.0
2014-Sep-25 06:34N 42°49' E 010°12'0 0.0
2014-Sep-25 05:33N 42°49' E 010°12'0 0.0
2014-Sep-25 04:34N 42°49' E 010°12'0 0.0
2014-Sep-25 03:33N 42°49' E 010°12'0 0.0
2014-Sep-25 02:34N 42°49' E 010°12'0 0.0
2014-Sep-25 01:34N 42°49' E 010°12'0 0.0
2014-Sep-25 00:33N 42°49' E 010°12'0 0.0
2014-Sep-24 23:34N 42°49' E 010°12'0 0.0
2014-Sep-24 22:33N 42°49' E 010°12'0 0.0
2014-Sep-24 21:34N 42°49' E 010°12'0 0.0
2014-Sep-24 20:33N 42°49' E 010°12'0 0.0
2014-Sep-24 19:33N 42°49' E 010°12'0 0.0
2014-Sep-24 18:34N 42°49' E 010°12'0 0.0
2014-Sep-24 17:34N 42°49' E 010°12'0 0.0
2014-Sep-24 16:33N 42°49' E 010°12'0 0.1
2014-Sep-24 13:33N 42°48' E 010°12'0 0.0
2014-Sep-24 12:33N 42°48' E 010°12'0 0.2
2014-Sep-24 11:33N 42°49' E 010°12'0 0.0
2014-Sep-24 10:33N 42°49' E 010°12'0 0.0
2014-Sep-24 09:33N 42°49' E 010°12'0 0.0
2014-Sep-24 08:31N 42°49' E 010°12'0 0.0
2014-Sep-24 00:33N 42°49' E 010°12'0 0.0
2014-Sep-23 23:29N 42°49' E 010°12'0 0.0
2014-Sep-23 22:33N 42°49' E 010°12'0 0.0
2014-Sep-23 21:30N 42°49' E 010°12'0 0.0
2014-Sep-23 20:09N 42°49' E 010°12'0 0.0
2014-Sep-23 19:33N 42°49' E 010°12'0 0.0
2014-Sep-23 18:33N 42°49' E 010°12'0 0.0
2014-Sep-23 17:32N 42°49' E 010°12'0 0.0
2014-Sep-23 16:34N 42°49' E 010°12'0 0.0
2014-Sep-23 15:34N 42°49' E 010°12'0 0.0
2014-Sep-23 14:33N 42°49' E 010°12'0 0.0
2014-Sep-23 13:33N 42°49' E 010°12'0 0.0
2014-Sep-23 12:34N 42°49' E 010°12'0 0.0
2014-Sep-23 11:34N 42°49' E 010°12'0 0.0
2014-Sep-23 10:34N 42°49' E 010°12'0 0.0
2014-Sep-23 09:34N 42°49' E 010°12'0 0.0
2014-Sep-23 08:33N 42°49' E 010°12'0 0.0
2014-Sep-23 07:34N 42°49' E 010°12'0 0.0
2014-Sep-23 06:33N 42°49' E 010°12'0 0.0
2014-Sep-23 05:33N 42°49' E 010°12'0 0.0
2014-Sep-23 04:33N 42°49' E 010°12'0 0.0
2014-Sep-23 03:34N 42°49' E 010°12'0 0.0
2014-Sep-23 02:33N 42°49' E 010°12'0 0.0
2014-Sep-23 01:33N 42°49' E 010°12'0 0.0
2014-Sep-23 00:33N 42°49' E 010°12'0 0.0
2014-Sep-22 23:33N 42°49' E 010°12'0 0.0
2014-Sep-22 22:34N 42°49' E 010°12'0 0.0
2014-Sep-22 21:33N 42°49' E 010°12'0 0.0
2014-Sep-22 20:32N 42°49' E 010°12'0 0.0
2014-Sep-22 19:34N 42°49' E 010°12'0 0.0
2014-Sep-22 18:33N 42°49' E 010°12'0 0.0
2014-Sep-22 17:33N 42°49' E 010°12'0 0.0
2014-Sep-22 16:32N 42°49' E 010°12'0 0.0
2014-Sep-22 15:33N 42°49' E 010°12'0 0.0
2014-Sep-22 14:33N 42°49' E 010°12'0 0.0
2014-Sep-22 13:34N 42°49' E 010°12'0 0.0
2014-Sep-22 12:33N 42°49' E 010°12'0 0.0
2014-Sep-22 11:33N 42°49' E 010°12'0 0.0
2014-Sep-22 10:32N 42°49' E 010°12'0 0.0
2014-Sep-22 09:33N 42°49' E 010°12'0 0.0
2014-Sep-22 08:34N 42°49' E 010°12'0 0.0
2014-Sep-22 07:33N 42°49' E 010°12'0 0.0
2014-Sep-22 06:31N 42°49' E 010°12'0 0.0
2014-Sep-22 05:29N 42°49' E 010°12'0 0.0
2014-Sep-22 04:34N 42°49' E 010°12'0 0.0
2014-Sep-22 03:33N 42°49' E 010°12'0 0.0
2014-Sep-22 02:31N 42°49' E 010°12'0 0.0
2014-Sep-22 01:30N 42°49' E 010°12'0 0.0
2014-Sep-22 00:33N 42°49' E 010°12'0 0.0
2014-Sep-21 23:33N 42°49' E 010°12'0 0.0
2014-Sep-21 22:33N 42°49' E 010°12'0 0.0
2014-Sep-21 21:33N 42°49' E 010°12'0 0.0
2014-Sep-21 20:33N 42°49' E 010°12'0 0.0
2014-Sep-21 19:33N 42°49' E 010°12'0 0.0
2014-Sep-21 18:34N 42°49' E 010°12'0 0.0
2014-Sep-21 17:34N 42°49' E 010°12'0 0.0
2014-Sep-21 16:34N 42°49' E 010°12'4 3.3
2014-Sep-21 15:26N 42°48' E 010°07'4 2.1
2014-Sep-21 13:34N 42°48' E 010°12'0 0.1
2014-Sep-21 12:33N 42°48' E 010°12'0 0.2
2014-Sep-21 11:33N 42°49' E 010°12'0 0.0
2014-Sep-21 10:33N 42°49' E 010°12'0 0.0
2014-Sep-21 09:33N 42°49' E 010°12'0 0.0
2014-Sep-21 08:34N 42°49' E 010°12'0 0.0
2014-Sep-21 07:34N 42°49' E 010°12'0 0.0
2014-Sep-21 06:34N 42°49' E 010°12'0 0.0
2014-Sep-21 05:34N 42°49' E 010°12'0 0.0
2014-Sep-21 04:33N 42°49' E 010°12'0 0.0
2014-Sep-21 03:34N 42°49' E 010°12'0 0.0
2014-Sep-21 02:34N 42°49' E 010°12'0 0.0
2014-Sep-21 01:33N 42°49' E 010°12'0 0.0
2014-Sep-21 00:34N 42°49' E 010°12'0 0.0
2014-Sep-20 23:33N 42°49' E 010°12'0 0.0
2014-Sep-20 22:34N 42°49' E 010°12'0 0.0
2014-Sep-20 21:34N 42°49' E 010°12'0 0.0
2014-Sep-20 20:33N 42°49' E 010°12'0 0.0
2014-Sep-20 19:33N 42°49' E 010°12'0 0.0
2014-Sep-20 18:21N 42°49' E 010°12'  

Dump ship's entire track history